sensor_id;sensor_type;location;lat;lon;timestamp;temperature;humidity
14154;DHT22;7157;53.144;7.570;2023-08-01T00:04:05;17.64;111.12
14154;DHT22;7157;53.144;7.570;2023-08-01T00:14:08;17.70;110.95
14154;DHT22;7157;53.144;7.570;2023-08-01T00:24:12;17.80;110.58
14154;DHT22;7157;53.144;7.570;2023-08-01T00:34:15;17.75;110.23
14154;DHT22;7157;53.144;7.570;2023-08-01T00:44:19;17.73;110.24
14154;DHT22;7157;53.144;7.570;2023-08-01T00:54:22;17.74;110.21
14154;DHT22;7157;53.144;7.570;2023-08-01T01:04:27;17.65;109.97
14154;DHT22;7157;53.144;7.570;2023-08-01T01:14:30;17.56;110.08
14154;DHT22;7157;53.144;7.570;2023-08-01T01:24:35;17.46;109.90
14154;DHT22;7157;53.144;7.570;2023-08-01T01:34:38;17.46;110.00
14154;DHT22;7157;53.144;7.570;2023-08-01T01:44:42;17.46;109.96
14154;DHT22;7157;53.144;7.570;2023-08-01T01:54:45;17.46;109.77
14154;DHT22;7157;53.144;7.570;2023-08-01T02:04:50;17.29;109.36
14154;DHT22;7157;53.144;7.570;2023-08-01T02:14:53;16.91;110.06
14154;DHT22;7157;53.144;7.570;2023-08-01T02:24:59;17.07;110.01
14154;DHT22;7157;53.144;7.570;2023-08-01T02:35:02;17.06;109.91
14154;DHT22;7157;53.144;7.570;2023-08-01T02:45:07;17.06;109.47
14154;DHT22;7157;53.144;7.570;2023-08-01T02:55:11;17.04;109.48
14154;DHT22;7157;53.144;7.570;2023-08-01T03:05:15;17.04;109.45
14154;DHT22;7157;53.144;7.570;2023-08-01T03:15:18;17.06;109.30
14154;DHT22;7157;53.144;7.570;2023-08-01T03:25:22;16.92;109.25
14154;DHT22;7157;53.144;7.570;2023-08-01T03:35:25;16.85;109.06
14154;DHT22;7157;53.144;7.570;2023-08-01T03:45:29;16.71;108.76
14154;DHT22;7157;53.144;7.570;2023-08-01T03:55:32;16.55;108.51
14154;DHT22;7157;53.144;7.570;2023-08-01T04:05:36;16.64;108.23
14154;DHT22;7157;53.144;7.570;2023-08-01T04:15:39;16.61;108.30
14154;DHT22;7157;53.144;7.570;2023-08-01T04:25:43;16.71;108.17
14154;DHT22;7157;53.144;7.570;2023-08-01T04:35:46;17.13;107.86
14154;DHT22;7157;53.144;7.570;2023-08-01T04:45:52;17.20;107.83
14154;DHT22;7157;53.144;7.570;2023-08-01T04:55:54;17.06;108.22
14154;DHT22;7157;53.144;7.570;2023-08-01T05:05:58;16.96;108.56
14154;DHT22;7157;53.144;7.570;2023-08-01T05:16:01;16.99;108.36
14154;DHT22;7157;53.144;7.570;2023-08-01T05:26:06;17.00;108.04
14154;DHT22;7157;53.144;7.570;2023-08-01T05:36:08;17.15;107.46
14154;DHT22;7157;53.144;7.570;2023-08-01T05:46:13;17.25;107.10
14154;DHT22;7157;53.144;7.570;2023-08-01T05:56:16;17.24;106.86
14154;DHT22;7157;53.144;7.570;2023-08-01T06:06:20;17.23;106.26
14154;DHT22;7157;53.144;7.570;2023-08-01T06:16:23;17.33;106.37
14154;DHT22;7157;53.144;7.570;2023-08-01T06:26:30;17.64;105.42
14154;DHT22;7157;53.144;7.570;2023-08-01T06:36:32;18.06;103.60
14154;DHT22;7157;53.144;7.570;2023-08-01T06:46:36;17.81;103.55
14154;DHT22;7157;53.144;7.570;2023-08-01T06:56:40;18.05;102.90
14154;DHT22;7157;53.144;7.570;2023-08-01T07:06:50;18.18;101.51
14154;DHT22;7157;53.144;7.570;2023-08-01T07:16:52;18.87;100.27
14154;DHT22;7157;53.144;7.570;2023-08-01T07:26:57;18.78;97.23
14154;DHT22;7157;53.144;7.570;2023-08-01T07:37:00;18.67;97.68
14154;DHT22;7157;53.144;7.570;2023-08-01T07:47:05;18.85;96.52
14154;DHT22;7157;53.144;7.570;2023-08-01T07:57:07;18.67;94.11
14154;DHT22;7157;53.144;7.570;2023-08-01T08:07:11;18.99;95.84
14154;DHT22;7157;53.144;7.570;2023-08-01T08:17:14;19.47;93.33
14154;DHT22;7157;53.144;7.570;2023-08-01T08:27:19;19.65;90.25
14154;DHT22;7157;53.144;7.570;2023-08-01T08:37:22;19.13;90.85
14154;DHT22;7157;53.144;7.570;2023-08-01T08:47:27;19.28;90.93
14154;DHT22;7157;53.144;7.570;2023-08-01T08:57:30;19.07;92.05
14154;DHT22;7157;53.144;7.570;2023-08-01T09:07:39;18.74;94.27
14154;DHT22;7157;53.144;7.570;2023-08-01T09:17:50;17.77;99.22
14154;DHT22;7157;53.144;7.570;2023-08-01T09:27:54;17.91;100.33
14154;DHT22;7157;53.144;7.570;2023-08-01T09:38:00;17.51;102.92
14154;DHT22;7157;53.144;7.570;2023-08-01T09:48:04;17.79;101.86
14154;DHT22;7157;53.144;7.570;2023-08-01T09:58:07;19.61;98.55
14154;DHT22;7157;53.144;7.570;2023-08-01T10:08:12;18.18;100.35
14154;DHT22;7157;53.144;7.570;2023-08-01T10:18:16;19.58;98.07
14154;DHT22;7157;53.144;7.570;2023-08-01T10:28:31;20.35;92.52
14154;DHT22;7157;53.144;7.570;2023-08-01T10:38:44;21.04;85.19
14154;DHT22;7157;53.144;7.570;2023-08-01T10:48:50;21.13;87.48
14154;DHT22;7157;53.144;7.570;2023-08-01T10:58:53;19.13;95.17
14154;DHT22;7157;53.144;7.570;2023-08-01T11:08:57;18.38;101.82
14154;DHT22;7157;53.144;7.570;2023-08-01T11:19:00;19.79;99.93
14154;DHT22;7157;53.144;7.570;2023-08-01T11:29:04;20.59;93.36
14154;DHT22;7157;53.144;7.570;2023-08-01T11:39:07;21.38;88.34
14154;DHT22;7157;53.144;7.570;2023-08-01T11:49:14;19.37;94.59
14154;DHT22;7157;53.144;7.570;2023-08-01T11:59:17;18.36;102.15
14154;DHT22;7157;53.144;7.570;2023-08-01T12:09:21;19.88;97.16
14154;DHT22;7157;53.144;7.570;2023-08-01T12:19:27;19.18;100.93
14154;DHT22;7157;53.144;7.570;2023-08-01T12:29:31;20.65;94.79
14154;DHT22;7157;53.144;7.570;2023-08-01T12:39:33;26.52;72.25
14154;DHT22;7157;53.144;7.570;2023-08-01T12:49:38;22.28;80.45
14154;DHT22;7157;53.144;7.570;2023-08-01T12:59:40;21.93;81.55
14154;DHT22;7157;53.144;7.570;2023-08-01T13:09:44;21.92;85.29
14154;DHT22;7157;53.144;7.570;2023-08-01T13:19:47;22.57;80.88
14154;DHT22;7157;53.144;7.570;2023-08-01T13:29:51;21.09;88.18
14154;DHT22;7157;53.144;7.570;2023-08-01T13:39:56;20.20;89.09
14154;DHT22;7157;53.144;7.570;2023-08-01T13:50:00;20.18;88.41
14154;DHT22;7157;53.144;7.570;2023-08-01T14:00:04;21.58;80.09
14154;DHT22;7157;53.144;7.570;2023-08-01T14:10:15;20.74;84.71
14154;DHT22;7157;53.144;7.570;2023-08-01T14:20:18;21.10;84.97
14154;DHT22;7157;53.144;7.570;2023-08-01T14:30:22;20.99;81.29
14154;DHT22;7157;53.144;7.570;2023-08-01T14:40:25;21.36;80.50
14154;DHT22;7157;53.144;7.570;2023-08-01T14:50:29;21.40;81.36
14154;DHT22;7157;53.144;7.570;2023-08-01T15:00:34;21.25;75.26
14154;DHT22;7157;53.144;7.570;2023-08-01T15:10:38;19.71;89.31
14154;DHT22;7157;53.144;7.570;2023-08-01T15:20:41;18.97;93.09
14154;DHT22;7157;53.144;7.570;2023-08-01T15:30:45;19.81;91.82
14154;DHT22;7157;53.144;7.570;2023-08-01T15:40:48;19.54;89.28
14154;DHT22;7157;53.144;7.570;2023-08-01T15:50:55;18.67;95.02
14154;DHT22;7157;53.144;7.570;2023-08-01T16:00:58;17.49;101.99
14154;DHT22;7157;53.144;7.570;2023-08-01T16:11:03;17.97;102.89
14154;DHT22;7157;53.144;7.570;2023-08-01T16:21:06;18.29;102.63
14154;DHT22;7157;53.144;7.570;2023-08-01T16:31:11;18.67;102.04
14154;DHT22;7157;53.144;7.570;2023-08-01T16:41:13;18.52;100.45
14154;DHT22;7157;53.144;7.570;2023-08-01T16:51:24;18.68;100.41
14154;DHT22;7157;53.144;7.570;2023-08-01T17:01:26;18.74;100.12
14154;DHT22;7157;53.144;7.570;2023-08-01T17:11:30;18.61;99.01
14154;DHT22;7157;53.144;7.570;2023-08-01T17:21:33;18.53;99.20
14154;DHT22;7157;53.144;7.570;2023-08-01T17:31:37;18.73;99.91
14154;DHT22;7157;53.144;7.570;2023-08-01T17:41:41;18.94;99.02
14154;DHT22;7157;53.144;7.570;2023-08-01T17:51:45;18.64;99.97
14154;DHT22;7157;53.144;7.570;2023-08-01T18:01:48;18.40;99.82
14154;DHT22;7157;53.144;7.570;2023-08-01T18:11:54;18.69;97.81
14154;DHT22;7157;53.144;7.570;2023-08-01T18:21:57;18.73;96.21
14154;DHT22;7157;53.144;7.570;2023-08-01T18:32:01;18.78;95.69
14154;DHT22;7157;53.144;7.570;2023-08-01T18:42:06;18.49;96.06
14154;DHT22;7157;53.144;7.570;2023-08-01T18:52:10;18.32;97.79
14154;DHT22;7157;53.144;7.570;2023-08-01T19:02:13;17.94;99.71
14154;DHT22;7157;53.144;7.570;2023-08-01T19:12:17;18.00;100.08
14154;DHT22;7157;53.144;7.570;2023-08-01T19:22:20;18.00;100.71
14154;DHT22;7157;53.144;7.570;2023-08-01T19:32:27;17.82;101.18
14154;DHT22;7157;53.144;7.570;2023-08-01T19:42:30;17.74;100.64
14154;DHT22;7157;53.144;7.570;2023-08-01T19:52:34;17.69;100.39
14154;DHT22;7157;53.144;7.570;2023-08-01T20:02:37;17.73;100.20
14154;DHT22;7157;53.144;7.570;2023-08-01T20:12:42;17.70;100.50
14154;DHT22;7157;53.144;7.570;2023-08-01T20:22:45;17.64;100.41
14154;DHT22;7157;53.144;7.570;2023-08-01T20:32:52;17.55;100.17
14154;DHT22;7157;53.144;7.570;2023-08-01T20:42:59;17.51;100.10
14154;DHT22;7157;53.144;7.570;2023-08-01T20:53:03;17.54;99.93
14154;DHT22;7157;53.144;7.570;2023-08-01T21:03:06;17.44;100.03
14154;DHT22;7157;53.144;7.570;2023-08-01T21:13:10;17.41;99.99
14154;DHT22;7157;53.144;7.570;2023-08-01T21:23:13;17.43;100.22
14154;DHT22;7157;53.144;7.570;2023-08-01T21:33:17;17.31;100.22
14154;DHT22;7157;53.144;7.570;2023-08-01T21:43:19;17.40;100.56
14154;DHT22;7157;53.144;7.570;2023-08-01T21:53:24;17.30;100.38
14154;DHT22;7157;53.144;7.570;2023-08-01T22:03:26;17.36;100.75
14154;DHT22;7157;53.144;7.570;2023-08-01T22:13:30;17.36;100.68
14154;DHT22;7157;53.144;7.570;2023-08-01T22:23:34;17.16;101.38
14154;DHT22;7157;53.144;7.570;2023-08-01T22:33:38;17.14;101.25
14154;DHT22;7157;53.144;7.570;2023-08-01T22:43:40;17.18;101.52
14154;DHT22;7157;53.144;7.570;2023-08-01T22:53:46;17.06;101.98
14154;DHT22;7157;53.144;7.570;2023-08-01T23:03:49;16.94;102.59
14154;DHT22;7157;53.144;7.570;2023-08-01T23:13:53;16.79;103.96
14154;DHT22;7157;53.144;7.570;2023-08-01T23:23:56;16.78;103.72
14154;DHT22;7157;53.144;7.570;2023-08-01T23:34:01;16.77;104.34
14154;DHT22;7157;53.144;7.570;2023-08-01T23:44:04;16.85;104.02
14154;DHT22;7157;53.144;7.570;2023-08-01T23:54:08;16.95;104.16
